Time;durP1;ratioP1;P1;durP2;ratioP2;P2;SDS_P1;SDS_P2;PMS_P1;PMS_P2;Temp;Humidity;BMP_temperature;BMP_pressure;BME280_temperature;BME280_humidity;BME280_pressure;Samples;Min_cycle;Max_cycle;Signal;HPM_P1;HPM_P2
2022/02/19 00:02:22;;;;;;;2.95;0.70;;;8.10;92.30;;;;;;5266073;28;20055;-33
2022/02/19 00:04:55;;;;;;;1.55;0.80;;;8.10;92.70;;;;;;5267266;28;20055;-32
2022/02/19 00:07:27;;;;;;;1.10;0.70;;;8.10;92.60;;;;;;5280568;27;20051;-34
2022/02/19 00:10:03;;;;;;;3.50;0.85;;;8.10;93.30;;;;;;5241585;28;20412;-32
2022/02/19 00:12:36;;;;;;;1.83;1.03;;;8.10;92.60;;;;;;5219208;28;20040;-34
2022/02/19 00:15:09;;;;;;;1.92;0.90;;;8.10;93.00;;;;;;5219107;28;20318;-35
2022/02/19 00:17:41;;;;;;;2.87;1.10;;;8.10;92.40;;;;;;5219397;28;20037;-32
2022/02/19 00:20:14;;;;;;;4.85;1.27;;;8.10;93.10;;;;;;5222919;28;20199;-33
2022/02/19 00:22:47;;;;;;;1.80;0.70;;;8.10;93.40;;;;;;5216372;28;20056;-33
2022/02/19 00:25:20;;;;;;;2.60;0.60;;;8.10;92.40;;;;;;5208232;28;20272;-34
2022/02/19 00:27:53;;;;;;;2.65;0.65;;;8.10;91.90;;;;;;5215959;28;20055;-34
2022/02/19 00:30:26;;;;;;;3.67;0.67;;;8.10;91.90;;;;;;5218371;28;20047;-34
2022/02/19 00:32:59;;;;;;;1.90;0.70;;;8.10;91.90;;;;;;5217824;28;20288;-33
2022/02/19 00:35:33;;;;;;;4.40;0.90;;;8.10;91.10;;;;;;5224788;28;20040;-34
2022/02/19 00:38:06;;;;;;;1.88;0.65;;;8.10;91.60;;;;;;5215187;28;20416;-32
2022/02/19 00:40:38;;;;;;;4.28;1.05;;;8.10;90.90;;;;;;5221806;28;20044;-33
2022/02/19 00:43:10;;;;;;;3.13;1.05;;;8.10;90.90;;;;;;5222174;28;20749;-34
2022/02/19 00:45:43;;;;;;;2.30;0.63;;;8.00;91.20;;;;;;5219706;28;20053;-33
2022/02/19 00:48:16;;;;;;;2.33;0.77;;;8.10;90.80;;;;;;5223964;28;20048;-34
2022/02/19 00:51:08;;;;;;;6.43;0.98;;;8.00;90.20;;;;;;5218803;28;20398;-33
2022/02/19 00:53:41;;;;;;;4.53;0.90;;;7.90;89.20;;;;;;5221595;28;20144;-34
2022/02/19 00:56:14;;;;;;;2.85;0.73;;;7.90;87.80;;;;;;5210451;28;20075;-34
2022/02/19 00:58:47;;;;;;;3.15;0.80;;;7.80;88.10;;;;;;5208634;28;20064;-34
2022/02/19 01:01:22;;;;;;;1.00;0.60;;;7.90;90.10;;;;;;5208727;28;20045;-33
2022/02/19 01:04:04;;;;;;;4.80;0.65;;;7.80;90.10;;;;;;5221512;28;20045;-34
2022/02/19 01:06:37;;;;;;;1.15;0.65;;;7.90;90.60;;;;;;5226149;28;20040;-33
2022/02/19 01:09:11;;;;;;;2.10;0.85;;;7.90;90.30;;;;;;5223352;28;20051;-33
2022/02/19 01:11:44;;;;;;;1.00;0.77;;;7.90;90.60;;;;;;5215548;28;20044;-34
2022/02/19 01:14:16;;;;;;;1.40;0.65;;;7.90;90.80;;;;;;5222802;28;20507;-34
2022/02/19 01:16:49;;;;;;;3.92;1.05;;;7.90;90.10;;;;;;5229077;28;20059;-33
2022/02/19 01:19:21;;;;;;;4.45;0.80;;;7.80;90.20;;;;;;5206380;28;20445;-33
2022/02/19 01:21:54;;;;;;;1.50;0.63;;;7.80;90.00;;;;;;5220272;28;20053;-33
2022/02/19 01:24:26;;;;;;;6.55;0.70;;;7.80;90.50;;;;;;5219614;28;20056;-33
2022/02/19 01:27:04;;;;;;;2.28;0.75;;;7.80;89.00;;;;;;5209431;28;20048;-33
2022/02/19 01:29:40;;;;;;;2.88;0.85;;;7.80;88.30;;;;;;5221000;28;20053;-34
2022/02/19 01:32:13;;;;;;;2.30;0.77;;;7.80;89.10;;;;;;5219915;28;20409;-33
2022/02/19 01:34:45;;;;;;;4.78;0.98;;;7.80;88.10;;;;;;5221080;28;20068;-33
2022/02/19 01:37:19;;;;;;;6.80;0.73;;;7.80;86.50;;;;;;5226192;28;20497;-33
2022/02/19 01:39:52;;;;;;;1.83;1.00;;;7.70;85.10;;;;;;5220592;28;20047;-33
2022/02/19 01:42:27;;;;;;;3.50;0.70;;;7.70;86.30;;;;;;5219889;28;20052;-33
2022/02/19 01:44:59;;;;;;;1.65;0.77;;;7.70;85.90;;;;;;5222136;28;20295;-33
2022/02/19 01:47:32;;;;;;;3.95;0.98;;;7.70;86.40;;;;;;5224675;28;20044;-33
2022/02/19 01:50:07;;;;;;;3.05;0.90;;;7.80;85.10;;;;;;5203970;28;20037;-33
2022/02/19 01:52:42;;;;;;;5.07;0.90;;;7.70;86.20;;;;;;5226811;28;20045;-33
2022/02/19 01:55:19;;;;;;;2.20;0.70;;;7.70;84.90;;;;;;5222660;28;20048;-33
2022/02/19 01:58:06;;;;;;;2.13;0.77;;;7.70;84.80;;;;;;5239636;28;20041;-33
2022/02/19 02:01:03;;;;;;;4.18;1.30;;;7.70;84.60;;;;;;5218608;28;20068;-32
2022/02/19 02:04:11;;;;;;;1.63;0.57;;;7.80;85.90;;;;;;5222556;28;20048;-32
2022/02/19 02:06:46;;;;;;;2.67;0.50;;;7.70;85.90;;;;;;5218039;28;20053;-32
2022/02/19 02:09:20;;;;;;;2.45;0.70;;;7.70;86.20;;;;;;5221965;28;20049;-33
2022/02/19 02:11:53;;;;;;;2.95;0.98;;;7.70;86.10;;;;;;5218275;28;20056;-32
2022/02/19 02:14:26;;;;;;;2.30;0.82;;;7.70;86.90;;;;;;5228706;28;20101;-32
2022/02/19 02:17:09;;;;;;;0.68;0.47;;;7.70;88.90;;;;;;5213715;28;20037;-33
2022/02/19 02:19:42;;;;;;;0.80;0.47;;;7.70;88.20;;;;;;5219750;28;20041;-33
2022/02/19 02:22:20;;;;;;;1.58;0.50;;;7.70;87.50;;;;;;5214312;28;20059;-33
2022/02/19 02:24:53;;;;;;;0.63;0.50;;;7.70;87.80;;;;;;5209220;28;20044;-33
2022/02/19 02:27:43;;;;;;;2.97;0.77;;;7.70;88.20;;;;;;5219825;28;20040;-34
2022/02/19 02:30:17;;;;;;;2.05;0.88;;;7.60;87.10;;;;;;5212909;28;20048;-32
2022/02/19 02:32:54;;;;;;;1.60;0.60;;;7.60;87.70;;;;;;5214665;28;20041;-33
2022/02/19 02:35:27;;;;;;;0.50;0.50;;;7.60;87.10;;;;;;5218310;28;20032;-33
2022/02/19 02:38:00;;;;;;;3.22;0.80;;;7.60;88.20;;;;;;5211662;28;20075;-33
2022/02/19 02:40:34;;;;;;;1.67;0.80;;;7.60;88.50;;;;;;5211056;28;20045;-32
2022/02/19 02:43:07;;;;;;;4.50;1.20;;;7.60;88.10;;;;;;5213249;28;20647;-33
2022/02/19 02:45:39;;;;;;;3.22;0.80;;;7.60;88.10;;;;;;5213981;28;20075;-33
2022/02/19 02:48:25;;;;;;;3.75;1.45;;;7.60;88.70;;;;;;5212690;28;20051;-33
2022/02/19 02:51:01;;;;;;;2.77;0.83;;;7.50;88.20;;;;;;5221183;28;20041;-33
2022/02/19 02:53:47;;;;;;;1.80;0.70;;;7.60;88.00;;;;;;5216560;28;20053;-34
2022/02/19 02:56:21;;;;;;;2.42;0.95;;;7.50;88.90;;;;;;5219834;28;20500;-33
2022/02/19 02:58:53;;;;;;;2.55;0.77;;;7.50;87.80;;;;;;5228601;28;20049;-34
2022/02/19 03:01:26;;;;;;;2.80;0.70;;;7.50;88.20;;;;;;5209342;28;20055;-34
2022/02/19 03:03:59;;;;;;;2.97;1.25;;;7.50;89.30;;;;;;5199436;28;20057;-33
2022/02/19 03:06:32;;;;;;;2.78;0.70;;;7.50;89.40;;;;;;5210726;28;20052;-34
2022/02/19 03:09:05;;;;;;;6.95;1.27;;;7.50;89.70;;;;;;5215332;28;20371;-33
2022/02/19 03:11:38;;;;;;;2.88;0.60;;;7.50;89.40;;;;;;5217623;28;20413;-33
2022/02/19 03:14:12;;;;;;;5.28;1.10;;;7.50;88.90;;;;;;5231929;28;20036;-33
2022/02/19 03:16:45;;;;;;;3.15;0.82;;;7.40;88.30;;;;;;5218499;28;20060;-34
2022/02/19 03:19:19;;;;;;;;;;;7.40;88.20;;;;;;5217938;28;20048;-34
2022/02/19 03:21:51;;;;;;;1.13;0.60;;;7.30;89.90;;;;;;5213624;28;19925;-32
2022/02/19 03:24:24;;;;;;;2.80;0.52;;;7.30;91.20;;;;;;5212067;28;20052;-32
2022/02/19 03:26:58;;;;;;;3.22;0.73;;;7.10;92.50;;;;;;5220606;28;20059;-33
2022/02/19 03:29:34;;;;;;;2.10;0.60;;;7.70;95.80;;;;;;5213065;28;20041;-32
2022/02/19 03:32:07;;;;;;;2.63;0.50;;;7.00;95.60;;;;;;5195007;28;20051;-31
2022/02/19 03:34:40;;;;;;;4.07;1.25;;;6.90;97.20;;;;;;5220012;28;20052;-33
2022/02/19 03:37:12;;;;;;;2.78;0.73;;;7.00;98.80;;;;;;5207590;28;20049;-32
2022/02/19 03:39:45;;;;;;;2.38;1.00;;;6.90;99.80;;;;;;5211344;28;20041;-32
2022/02/19 03:42:17;;;;;;;1.15;0.50;;;6.90;99.90;;;;;;5212662;28;20056;-32
2022/02/19 03:44:50;;;;;;;2.17;0.57;;;7.40;99.90;;;;;;5197654;28;20056;-32
2022/02/19 03:47:23;;;;;;;;;;;6.80;99.90;;;;;;5192610;28;20044;-32
2022/02/19 03:50:06;;;;;;;1.42;0.70;;;6.70;99.90;;;;;;5205256;28;20330;-31
2022/02/19 03:52:41;;;;;;;3.90;0.60;;;6.20;99.90;;;;;;5202533;28;20048;-32
2022/02/19 03:55:24;;;;;;;2.15;0.57;;;6.30;99.90;;;;;;5197116;28;20059;-32
2022/02/19 03:57:59;;;;;;;4.13;0.60;;;6.20;99.90;;;;;;5199881;28;20033;-33
2022/02/19 04:00:34;;;;;;;1.15;0.60;;;6.10;99.90;;;;;;5192905;28;20045;-33
2022/02/19 04:03:09;;;;;;;1.50;0.75;;;6.10;99.90;;;;;;5213183;28;20032;-32
2022/02/19 04:05:43;;;;;;;2.47;0.90;;;7.10;99.90;;;;;;5200014;28;20136;-31
2022/02/19 04:08:16;;;;;;;1.48;1.10;;;6.10;99.90;;;;;;5215260;28;20479;-33
2022/02/19 04:10:50;;;;;;;;;;;6.10;99.90;;;;;;5214259;28;20045;-31
2022/02/19 04:13:22;;;;;;;1.35;0.80;;;4.80;99.90;;;;;;5210688;28;19924;-32
2022/02/19 04:16:17;;;;;;;2.42;0.80;;;7.70;99.90;;;;;;5206376;28;20044;-32
2022/02/19 04:18:54;;;;;;;4.53;1.10;;;7.40;99.90;;;;;;5216868;28;20051;-31
2022/02/19 04:21:28;;;;;;;3.53;1.98;;;6.00;99.90;;;;;;5212899;28;20045;-32
2022/02/19 04:24:01;;;;;;;2.17;1.25;;;6.10;99.90;;;;;;5220440;28;20041;-32
2022/02/19 04:26:34;;;;;;;3.05;1.02;;;7.00;99.90;;;;;;5207039;28;20055;-32
2022/02/19 04:29:07;;;;;;;1.25;0.70;;;6.10;99.90;;;;;;5214214;28;20045;-33
2022/02/19 04:31:53;;;;;;;2.20;1.10;;;6.10;99.90;;;;;;5198067;28;20049;-32
2022/02/19 04:34:29;;;;;;;1.33;1.05;;;6.10;99.90;;;;;;5219503;28;20049;-32
2022/02/19 04:37:02;;;;;;;3.20;1.20;;;6.10;99.90;;;;;;5212360;28;20049;-32
2022/02/19 04:39:39;;;;;;;5.10;1.38;;;6.10;99.90;;;;;;5215164;28;20045;-32
2022/02/19 04:42:20;;;;;;;3.05;1.00;;;6.10;99.90;;;;;;5216657;28;20048;-32
2022/02/19 04:44:53;;;;;;;1.77;0.90;;;6.10;99.90;;;;;;5212401;28;20060;-32
2022/02/19 04:47:25;;;;;;;4.00;1.67;;;6.20;99.90;;;;;;5223545;28;20052;-31
2022/02/19 04:49:59;;;;;;;2.58;1.00;;;6.20;99.90;;;;;;5215452;28;20047;-32
2022/02/19 04:52:32;;;;;;;1.48;0.75;;;6.20;99.90;;;;;;5209030;28;20045;-31
2022/02/19 04:55:05;;;;;;;1.60;0.85;;;6.20;99.90;;;;;;5208165;28;20045;-31
2022/02/19 04:57:43;;;;;;;1.98;0.90;;;6.20;99.90;;;;;;5211476;28;20386;-32
2022/02/19 05:00:18;;;;;;;2.80;1.15;;;7.00;99.90;;;;;;5206828;28;21160;-30
2022/02/19 05:03:16;;;;;;;2.13;1.25;;;6.20;99.90;;;;;;5204645;28;20061;-31
2022/02/19 05:05:56;;;;;;;4.38;1.50;;;6.10;99.90;;;;;;5205467;28;20272;-31
2022/02/19 05:08:30;;;;;;;2.05;0.80;;;6.10;99.90;;;;;;5216205;28;20939;-32
2022/02/19 05:11:02;;;;;;;5.18;1.08;;;6.20;99.90;;;;;;5199110;28;20043;-31
2022/02/19 05:13:43;;;;;;;2.95;1.15;;;6.00;99.90;;;;;;5210677;28;20051;-32
2022/02/19 05:16:16;;;;;;;4.03;1.10;;;7.30;99.90;;;;;;5200127;28;20500;-32
2022/02/19 05:19:08;;;;;;;1.40;0.82;;;6.20;99.90;;;;;;5199369;28;20037;-32
2022/02/19 05:21:43;;;;;;;5.30;1.10;;;6.20;99.90;;;;;;5208532;28;20041;-31
2022/02/19 05:24:19;;;;;;;2.50;1.00;;;6.20;99.90;;;;;;5214631;28;20041;-31
2022/02/19 05:26:55;;;;;;;3.17;1.33;;;7.60;99.90;;;;;;5216844;28;20052;-32
2022/02/19 05:29:29;;;;;;;4.68;1.33;;;7.40;99.90;;;;;;5206554;28;20662;-32
2022/02/19 05:32:01;;;;;;;3.80;1.25;;;6.10;99.90;;;;;;5198178;28;26066;-31
2022/02/19 05:34:50;;;;;;;6.32;1.60;;;6.20;99.90;;;;;;5212205;28;20310;-32
2022/02/19 05:37:23;;;;;;;2.60;1.00;;;6.20;99.90;;;;;;5216266;28;20043;-32
2022/02/19 05:39:59;;;;;;;3.50;1.20;;;6.20;99.90;;;;;;5209378;28;20305;-31
2022/02/19 05:42:33;;;;;;;3.08;1.40;;;6.60;99.90;;;;;;5219803;28;20045;-32
2022/02/19 05:45:34;;;;;;;5.82;1.23;;;6.20;99.90;;;;;;5211153;28;20045;-31
2022/02/19 05:48:07;;;;;;;2.85;1.48;;;6.20;99.90;;;;;;5219100;28;20049;-31
2022/02/19 05:51:04;;;;;;;4.90;1.15;;;6.20;99.90;;;;;;5204681;28;20052;-32
2022/02/19 05:53:50;;;;;;;8.95;1.35;;;6.20;99.90;;;;;;5214756;28;20055;-32
2022/02/19 05:56:22;;;;;;;2.85;1.38;;;6.20;99.90;;;;;;5209277;28;20084;-31
2022/02/19 05:58:55;;;;;;;5.03;1.37;;;6.20;99.90;;;;;;5217761;28;20505;-32
2022/02/19 06:01:28;;;;;;;4.97;1.15;;;6.20;99.90;;;;;;5211441;28;20044;-31
2022/02/19 06:04:04;;;;;;;6.75;1.50;;;6.20;99.90;;;;;;5227170;28;20106;-32
2022/02/19 06:06:37;;;;;;;6.22;1.77;;;6.10;99.90;;;;;;5212297;28;20055;-31
2022/02/19 06:09:10;;;;;;;6.03;1.38;;;6.20;99.90;;;;;;5216690;28;20048;-31
2022/02/19 06:11:43;;;;;;;5.03;1.42;;;6.20;99.90;;;;;;5214115;28;20041;-31
2022/02/19 06:14:23;;;;;;;10.27;2.97;;;6.20;99.90;;;;;;5201338;28;20446;-31
2022/02/19 06:16:59;;;;;;;10.10;1.88;;;6.40;99.90;;;;;;5199502;28;20040;-31
2022/02/19 06:19:31;;;;;;;6.93;1.40;;;6.20;99.90;;;;;;5216506;28;20049;-31
2022/02/19 06:22:05;;;;;;;7.93;1.52;;;6.50;99.90;;;;;;5206296;28;20589;-32
2022/02/19 06:24:40;;;;;;;7.15;1.83;;;6.20;99.90;;;;;;5207466;28;20091;-31
2022/02/19 06:27:14;;;;;;;5.88;1.52;;;6.10;99.90;;;;;;5211433;28;20040;-31
2022/02/19 06:29:51;;;;;;;5.93;1.50;;;5.10;99.90;;;;;;5201021;28;20141;-31
2022/02/19 06:32:30;;;;;;;8.13;1.50;;;6.20;99.90;;;;;;5211587;28;20045;-31
2022/02/19 06:35:09;;;;;;;9.82;2.22;;;9.30;99.90;;;;;;5195102;28;20077;-31
2022/02/19 06:37:45;;;;;;;5.55;1.65;;;6.20;99.90;;;;;;5190950;28;20460;-32
2022/02/19 06:40:18;;;;;;;7.28;1.48;;;6.20;99.90;;;;;;5201330;28;20048;-31
2022/02/19 06:42:50;;;;;;;6.80;2.08;;;6.90;99.90;;;;;;5224111;28;20041;-31
2022/02/19 06:45:28;;;;;;;9.82;1.63;;;6.10;99.90;;;;;;5190737;28;20044;-31
2022/02/19 06:48:01;;;;;;;10.70;4.30;;;6.20;99.90;;;;;;5213921;28;20047;-31
2022/02/19 06:50:35;;;;;;;;;;;6.20;99.90;;;;;;5198341;28;20559;-31
2022/02/19 06:53:11;;;;;;;3.83;1.30;;;6.10;99.90;;;;;;5210571;28;19935;-32
2022/02/19 06:55:45;;;;;;;6.40;1.60;;;7.70;99.90;;;;;;5203660;28;20041;-31
2022/02/19 06:58:20;;;;;;;8.20;1.65;;;6.20;99.90;;;;;;5215456;28;20318;-32
2022/02/19 07:01:02;;;;;;;9.52;1.55;;;6.30;99.90;;;;;;5197976;28;20045;-31
2022/02/19 07:03:35;;;;;;;7.03;1.58;;;8.00;99.90;;;;;;5188223;28;20119;-31
2022/02/19 07:06:31;;;;;;;6.28;1.60;;;6.70;99.10;;;;;;5207776;28;20075;-31
2022/02/19 07:09:04;;;;;;;4.22;1.75;;;6.40;99.00;;;;;;5205619;28;20049;-31
2022/02/19 07:11:37;;;;;;;11.88;1.73;;;6.40;99.00;;;;;;5202447;28;20049;-31
2022/02/19 07:14:09;;;;;;;14.30;2.47;;;6.40;99.00;;;;;;5211159;28;20045;-32
2022/02/19 07:16:42;;;;;;;5.45;1.20;;;5.90;99.20;;;;;;5202433;28;20496;-33
2022/02/19 07:19:15;;;;;;;15.13;2.17;;;6.40;99.40;;;;;;5212121;28;20041;-31
2022/02/19 07:21:47;;;;;;;8.13;1.95;;;6.60;98.80;;;;;;5195081;28;20576;-31
2022/02/19 07:24:20;;;;;;;9.50;1.80;;;6.40;98.80;;;;;;5182967;28;20045;-31
2022/02/19 07:26:53;;;;;;;10.13;1.83;;;6.50;98.40;;;;;;5210124;28;20048;-31
2022/02/19 07:29:26;;;;;;;10.60;2.03;;;5.20;97.90;;;;;;5198514;28;20048;-32
2022/02/19 07:31:58;;;;;;;5.37;1.47;;;5.90;97.90;;;;;;5204505;28;20064;-32
2022/02/19 07:34:31;;;;;;;13.23;1.90;;;5.20;97.10;;;;;;5208414;28;20311;-31
2022/02/19 07:37:04;;;;;;;7.82;1.85;;;6.50;97.30;;;;;;5205104;28;20050;-30
2022/02/19 07:39:37;;;;;;;8.27;1.75;;;;;;;;;;5218682;28;20060;-31
2022/02/19 07:42:12;;;;;;;8.38;1.65;;;6.90;98.10;;;;;;5209635;28;20224;-32
2022/02/19 07:45:05;;;;;;;14.07;2.00;;;6.50;97.50;;;;;;5208761;28;20047;-31
2022/02/19 07:48:04;;;;;;;7.32;1.70;;;8.10;97.00;;;;;;5212380;28;20045;-32
2022/02/19 08:00:21;;;;;;;10.93;2.72;;;;;;;;;;5202195;28;20032;-31
2022/02/19 08:02:59;;;;;;;7.60;1.90;;;6.90;96.70;;;;;;5214010;28;20048;-32
2022/02/19 08:05:32;;;;;;;15.10;1.92;;;6.80;96.40;;;;;;5219966;28;20058;-31
2022/02/19 08:08:04;;;;;;;9.43;2.08;;;6.80;95.90;;;;;;5215529;28;20044;-31
2022/02/19 08:10:37;;;;;;;3.55;1.48;;;6.80;95.60;;;;;;5204329;28;20044;-32
2022/02/19 08:13:10;;;;;;;12.88;3.30;;;9.70;96.60;;;;;;5203141;28;20469;-32
2022/02/19 08:15:43;;;;;;;6.85;1.90;;;7.00;95.60;;;;;;5204473;28;20263;-32
2022/02/19 08:18:16;;;;;;;9.60;1.80;;;7.00;95.30;;;;;;5206057;28;20053;-31
2022/02/19 08:20:51;;;;;;;15.23;1.80;;;7.00;95.10;;;;;;5216562;28;20075;-34
2022/02/19 08:23:23;;;;;;;8.43;2.20;;;7.00;94.90;;;;;;5209944;28;20822;-32
2022/02/19 08:26:00;;;;;;;7.28;1.90;;;7.10;94.60;;;;;;5211115;28;20056;-35
2022/02/19 08:28:32;;;;;;;7.40;1.88;;;7.90;94.70;;;;;;5197088;28;20049;-31
2022/02/19 08:31:05;;;;;;;11.73;3.40;;;5.80;93.40;;;;;;5205528;28;20049;-35
2022/02/19 08:33:38;;;;;;;13.88;1.98;;;8.50;94.50;;;;;;5210167;28;20048;-32
2022/02/19 08:36:11;;;;;;;6.22;1.67;;;4.70;92.30;;;;;;5199215;28;20071;-31
2022/02/19 08:38:43;;;;;;;8.63;2.07;;;7.30;92.70;;;;;;5206259;28;20383;-31
2022/02/19 08:41:16;;;;;;;7.20;1.70;;;8.30;92.50;;;;;;5208767;28;20041;-31
2022/02/19 08:43:48;;;;;;;13.43;2.28;;;9.50;92.80;;;;;;5202271;28;20292;-32
2022/02/19 08:46:21;;;;;;;11.97;2.90;;;7.10;92.00;;;;;;5208664;28;20049;-31
2022/02/19 08:48:54;;;;;;;9.02;2.00;;;7.20;91.90;;;;;;5208033;28;20052;-32
2022/02/19 08:51:27;;;;;;;9.88;2.00;;;9.60;93.30;;;;;;5214694;28;20044;-31
2022/02/19 08:53:59;;;;;;;12.68;2.10;;;10.00;93.20;;;;;;5210864;28;20056;-32
2022/02/19 08:56:31;;;;;;;9.10;1.70;;;9.20;93.40;;;;;;5221573;28;20048;-32
2022/02/19 08:59:04;;;;;;;10.88;2.42;;;8.70;92.40;;;;;;5217323;28;20551;-32
2022/02/19 09:01:37;;;;;;;7.05;1.92;;;;;;;;;;5210888;28;20049;-32
2022/02/19 09:04:10;;;;;;;7.97;1.83;;;5.10;91.30;;;;;;5218017;28;20056;-31
2022/02/19 09:06:43;;;;;;;7.10;2.03;;;7.30;91.90;;;;;;5221350;28;20804;-32
2022/02/19 09:09:15;;;;;;;9.43;2.20;;;7.40;91.80;;;;;;5204381;28;20041;-33
2022/02/19 09:11:48;;;;;;;9.70;1.55;;;7.40;91.40;;;;;;5209542;28;20049;-32
2022/02/19 09:14:20;;;;;;;7.03;1.60;;;7.50;91.30;;;;;;5214269;28;20383;-32
2022/02/19 09:16:57;;;;;;;6.20;1.55;;;7.50;91.50;;;;;;5209104;28;20546;-32
2022/02/19 09:19:29;;;;;;;8.40;1.80;;;7.50;90.20;;;;;;5205884;28;20582;-31
2022/02/19 09:22:02;;;;;;;9.55;1.90;;;7.60;90.20;;;;;;5217109;28;20041;-32
2022/02/19 09:24:35;;;;;;;9.13;1.98;;;7.60;89.40;;;;;;5218648;28;20048;-32
2022/02/19 09:27:07;;;;;;;12.57;2.15;;;8.40;89.60;;;;;;5214458;28;20053;-32
2022/02/19 09:29:40;;;;;;;16.70;4.28;;;5.30;82.80;;;;;;5221928;28;20056;-31
2022/02/19 09:32:12;;;;;;;7.10;1.47;;;7.80;87.10;;;;;;5217645;28;20052;-32
2022/02/19 09:34:45;;;;;;;8.15;2.22;;;8.80;88.70;;;;;;5219342;28;20040;-32
2022/02/19 09:37:18;;;;;;;7.10;2.08;;;7.60;88.00;;;;;;5207600;28;20303;-32
2022/02/19 09:39:50;;;;;;;8.45;1.70;;;7.60;85.70;;;;;;5209085;28;20041;-31
2022/02/19 09:42:24;;;;;;;11.93;2.67;;;7.60;87.40;;;;;;5214280;28;20049;-32
2022/02/19 09:44:59;;;;;;;11.98;4.20;;;7.70;84.80;;;;;;5219574;28;20057;-32
2022/02/19 09:47:33;;;;;;;8.50;1.77;;;8.80;82.50;;;;;;5200301;28;20400;-32
2022/02/19 09:50:07;;;;;;;9.75;2.45;;;5.30;81.80;;;;;;5223296;28;20523;-32
2022/02/19 09:52:39;;;;;;;8.85;2.20;;;8.30;84.20;;;;;;5216828;28;20579;-32
2022/02/19 09:55:12;;;;;;;6.63;1.73;;;7.50;85.50;;;;;;5221463;28;20439;-32
2022/02/19 09:57:45;;;;;;;16.98;1.90;;;6.50;80.80;;;;;;5219184;28;20048;-32
2022/02/19 10:00:39;;;;;;;12.20;2.72;;;7.90;82.00;;;;;;5219029;28;20037;-32
2022/02/19 10:03:32;;;;;;;12.07;2.53;;;7.50;77.50;;;;;;5223588;28;20396;-32
2022/02/19 10:06:11;;;;;;;13.70;3.27;;;9.10;79.70;;;;;;5223990;28;20064;-33
2022/02/19 10:08:45;;;;;;;6.78;2.20;;;7.60;77.90;;;;;;5228131;28;20041;-31
2022/02/19 10:11:18;;;;;;;5.40;1.83;;;;;;;;;;5211263;28;20049;-32
2022/02/19 10:13:51;;;;;;;10.90;1.83;;;7.50;77.30;;;;;;5214838;28;20493;-32
2022/02/19 10:16:29;;;;;;;9.10;1.63;;;11.20;82.50;;;;;;5197885;28;20053;-32
2022/02/19 10:19:02;;;;;;;5.95;1.90;;;7.70;80.80;;;;;;5211821;28;20040;-32
2022/02/19 10:21:34;;;;;;;10.35;2.45;;;7.90;79.40;;;;;;5212541;28;20417;-33
2022/02/19 10:24:07;;;;;;;6.40;1.65;;;8.10;78.40;;;;;;5212467;28;20049;-32
2022/02/19 10:26:39;;;;;;;6.82;1.35;;;10.20;79.70;;;;;;5211920;28;20053;-33
2022/02/19 10:29:12;;;;;;;8.90;2.00;;;8.40;78.50;;;;;;5203631;28;20057;-32
2022/02/19 10:31:56;;;;;;;8.48;2.10;;;10.30;76.70;;;;;;5213625;28;20757;-32
2022/02/19 10:34:29;;;;;;;8.00;1.80;;;8.40;76.90;;;;;;5213382;28;20052;-32
2022/02/19 10:37:02;;;;;;;11.82;2.60;;;8.60;76.90;;;;;;5209189;28;20064;-33
2022/02/19 10:39:36;;;;;;;8.70;1.88;;;8.60;75.80;;;;;;5205143;28;20055;-33
2022/02/19 10:42:09;;;;;;;6.88;2.15;;;8.50;76.20;;;;;;5202616;28;20064;-33
2022/02/19 10:44:42;;;;;;;11.27;1.80;;;8.40;77.50;;;;;;5217838;28;20060;-33
2022/02/19 10:47:24;;;;;;;7.32;1.95;;;8.30;77.70;;;;;;5209389;28;20052;-33
2022/02/19 10:50:10;;;;;;;8.90;1.52;;;11.00;76.80;;;;;;5219518;28;20887;-33
2022/02/19 10:52:50;;;;;;;7.97;1.85;;;8.10;75.20;;;;;;5217102;28;20052;-32
2022/02/19 10:55:28;;;;;;;11.40;1.75;;;8.10;76.10;;;;;;5209727;28;20044;-33
2022/02/19 10:58:05;;;;;;;9.77;2.13;;;8.20;77.00;;;;;;5214931;28;20068;-33
2022/02/19 11:00:37;;;;;;;8.23;1.83;;;9.70;76.70;;;;;;5209224;28;21315;-33
2022/02/19 11:03:10;;;;;;;9.85;1.80;;;8.00;76.00;;;;;;5214196;28;20052;-32
2022/02/19 11:05:43;;;;;;;7.57;1.67;;;8.10;76.50;;;;;;5212424;28;20497;-33
2022/02/19 11:08:17;;;;;;;7.07;1.88;;;8.10;74.20;;;;;;5197678;28;20052;-33
2022/02/19 11:10:50;;;;;;;4.88;1.48;;;5.10;69.60;;;;;;5208073;28;20044;-33
2022/02/19 11:13:22;;;;;;;9.25;2.33;;;8.20;71.40;;;;;;5204047;28;20036;-32
2022/02/19 11:15:55;;;;;;;6.10;1.65;;;8.40;71.10;;;;;;5210874;28;20049;-32
2022/02/19 11:18:29;;;;;;;11.18;3.00;;;8.30;70.90;;;;;;5206175;28;20041;-33
2022/02/19 11:21:03;;;;;;;10.05;2.08;;;8.40;70.70;;;;;;5201620;28;20037;-32
2022/02/19 11:23:39;;;;;;;9.60;2.17;;;8.80;74.30;;;;;;5191829;28;20328;-32
2022/02/19 11:26:17;;;;;;;8.70;2.03;;;8.20;74.00;;;;;;5212649;28;20045;-34
2022/02/19 11:28:52;;;;;;;10.05;2.30;;;8.50;73.90;;;;;;5215734;28;20063;-33
2022/02/19 11:31:30;;;;;;;10.15;2.20;;;8.60;71.80;;;;;;5213417;28;20051;-34
2022/02/19 11:34:05;;;;;;;11.35;1.90;;;8.70;71.10;;;;;;5210086;28;20128;-33
2022/02/19 11:36:37;;;;;;;8.48;2.17;;;8.70;72.50;;;;;;5210092;28;20049;-33
2022/02/19 11:39:10;;;;;;;14.40;2.42;;;8.80;75.20;;;;;;5218825;28;20056;-33
2022/02/19 11:41:45;;;;;;;6.20;1.93;;;8.90;74.40;;;;;;5210194;28;20045;-33
2022/02/19 11:44:22;;;;;;;9.57;2.03;;;9.00;73.30;;;;;;5213669;28;20303;-33
2022/02/19 11:46:56;;;;;;;9.27;2.25;;;9.00;71.50;;;;;;5193598;28;20049;-34
2022/02/19 11:49:30;;;;;;;8.75;1.98;;;9.00;70.70;;;;;;5203505;28;20052;-34
2022/02/19 11:52:11;;;;;;;;;;;8.90;70.80;;;;;;5199532;28;20057;-33
2022/02/19 11:55:28;;;;;;;10.98;2.22;;;8.90;70.60;;;;;;5199194;28;19925;-33
2022/02/19 11:58:02;;;;;;;12.65;2.20;;;8.90;68.20;;;;;;5217829;28;20056;-34
2022/02/19 12:00:54;;;;;;;8.20;2.03;;;9.50;69.60;;;;;;5214706;28;20049;-34
2022/02/19 12:03:33;;;;;;;7.78;1.90;;;9.00;69.00;;;;;;5212028;28;20044;-35
2022/02/19 12:06:20;;;;;;;9.88;2.13;;;9.00;68.60;;;;;;5221587;28;20052;-33
2022/02/19 12:09:13;;;;;;;6.95;3.05;;;9.10;67.90;;;;;;5210756;28;20510;-34
2022/02/19 12:11:55;;;;;;;11.38;2.22;;;9.10;68.50;;;;;;5211454;28;20052;-33
2022/02/19 12:14:46;;;;;;;9.25;2.25;;;9.20;69.50;;;;;;5204279;28;20089;-34
2022/02/19 12:17:23;;;;;;;6.32;1.80;;;9.30;67.30;;;;;;5206780;28;20076;-34
2022/02/19 12:19:58;;;;;;;12.02;2.47;;;10.80;69.40;;;;;;5213574;28;20061;-33
2022/02/19 12:22:41;;;;;;;5.20;1.92;;;9.20;69.00;;;;;;5210906;28;20613;-33
2022/02/19 12:25:16;;;;;;;7.90;1.90;;;9.20;64.90;;;;;;5212835;28;20075;-33
2022/02/19 12:28:18;;;;;;;8.20;1.38;;;9.10;65.50;;;;;;5208937;28;20080;-34
2022/02/19 12:31:09;;;;;;;10.43;2.17;;;9.20;68.10;;;;;;5212403;28;20048;-32
2022/02/19 12:33:45;;;;;;;8.32;1.73;;;9.20;68.00;;;;;;5217227;28;20053;-31
2022/02/19 12:36:18;;;;;;;6.03;1.60;;;9.30;68.90;;;;;;5224576;28;20503;-32
2022/02/19 12:38:53;;;;;;;9.48;1.70;;;9.30;69.30;;;;;;5220896;28;20054;-30
2022/02/19 12:41:26;;;;;;;7.53;1.90;;;9.40;70.10;;;;;;5218233;28;20051;-31
2022/02/19 12:44:10;;;;;;;11.77;2.38;;;9.40;69.80;;;;;;5217737;28;20481;-31
2022/02/19 12:46:43;;;;;;;10.07;1.85;;;9.50;71.00;;;;;;5207678;28;20412;-30
2022/02/19 12:49:18;;;;;;;8.93;1.63;;;9.60;69.90;;;;;;5215602;28;20211;-31
2022/02/19 12:51:57;;;;;;;6.72;1.90;;;9.70;69.70;;;;;;5218593;28;20056;-31
2022/02/19 12:54:44;;;;;;;7.88;1.83;;;9.70;69.00;;;;;;5208212;28;20317;-32
2022/02/19 12:57:22;;;;;;;8.82;2.08;;;9.60;64.50;;;;;;5208397;28;20045;-31
2022/02/19 12:59:56;;;;;;;8.32;2.05;;;9.60;68.80;;;;;;5219318;28;20040;-31
2022/02/19 13:02:28;;;;;;;5.25;1.90;;;9.60;67.60;;;;;;5209647;28;20048;-31
2022/02/19 13:05:09;;;;;;;6.05;2.00;;;9.60;69.70;;;;;;5218020;28;20060;-31
2022/02/19 13:07:41;;;;;;;4.95;1.58;;;9.70;70.30;;;;;;5215912;28;20783;-31
2022/02/19 13:10:19;;;;;;;5.60;2.05;;;9.60;71.00;;;;;;5214118;28;20428;-31
2022/02/19 13:12:51;;;;;;;8.40;1.65;;;9.60;67.60;;;;;;5222973;28;20061;-31
2022/02/19 13:15:23;;;;;;;5.93;1.65;;;9.50;69.30;;;;;;5208424;28;20051;-32
2022/02/19 13:17:57;;;;;;;6.15;1.60;;;9.50;69.10;;;;;;5225956;28;20387;-33
2022/02/19 13:20:29;;;;;;;12.52;2.58;;;9.50;66.70;;;;;;5219168;28;20065;-32
2022/02/19 13:23:02;;;;;;;9.30;3.15;;;9.40;70.30;;;;;;5211223;28;20052;-32
2022/02/19 13:25:45;;;;;;;12.65;2.45;;;9.40;67.70;;;;;;5212364;28;20067;-31
2022/02/19 13:28:18;;;;;;;6.97;1.92;;;9.30;68.20;;;;;;5206762;28;20526;-32
2022/02/19 13:30:50;;;;;;;13.77;2.38;;;9.20;66.40;;;;;;5217902;28;20409;-31
2022/02/19 13:33:23;;;;;;;7.63;1.92;;;9.10;66.70;;;;;;5193817;28;20052;-33
2022/02/19 13:35:56;;;;;;;12.25;1.75;;;9.00;65.40;;;;;;5203704;28;20060;-30
2022/02/19 13:38:28;;;;;;;6.88;2.17;;;8.90;64.90;;;;;;5188457;28;20044;-32
2022/02/19 13:41:01;;;;;;;5.90;1.80;;;8.80;65.80;;;;;;5202728;28;20032;-32
2022/02/19 13:43:34;;;;;;;7.97;2.13;;;8.80;64.50;;;;;;5203054;28;20048;-31
2022/02/19 13:46:18;;;;;;;11.75;2.20;;;8.70;64.70;;;;;;5193970;28;20056;-31
2022/02/19 13:48:51;;;;;;;8.68;1.73;;;8.70;65.50;;;;;;5188690;28;20041;-32
2022/02/19 13:51:33;;;;;;;10.98;2.10;;;8.60;64.30;;;;;;5199025;28;20060;-31
2022/02/19 13:54:14;;;;;;;10.68;2.45;;;8.60;66.00;;;;;;5197590;28;20523;-32